sensor_id;sensor_type;location;lat;lon;timestamp;pressure;altitude;pressure_sealevel;temperature
70123;BMP280;57489;37.404;24.920;2024-02-04T00:04:17;101009.56;;;17.55
70123;BMP280;57489;37.404;24.920;2024-02-04T00:09:21;101006.38;;;17.53
70123;BMP280;57489;37.404;24.920;2024-02-04T00:14:24;101003.78;;;17.48
70123;BMP280;57489;37.404;24.920;2024-02-04T00:19:27;101005.34;;;17.49
70123;BMP280;57489;37.404;24.920;2024-02-04T00:24:31;101002.19;;;17.47
70123;BMP280;57489;37.404;24.920;2024-02-04T00:29:33;100996.06;;;17.47
70123;BMP280;57489;37.404;24.920;2024-02-04T00:34:35;100999.56;;;17.42
70123;BMP280;57489;37.404;24.920;2024-02-04T00:39:40;101003.28;;;17.41
70123;BMP280;57489;37.404;24.920;2024-02-04T00:44:42;100993.78;;;17.40
70123;BMP280;57489;37.404;24.920;2024-02-04T00:49:44;100998.56;;;17.38
70123;BMP280;57489;37.404;24.920;2024-02-04T00:54:47;100990.09;;;17.36
70123;BMP280;57489;37.404;24.920;2024-02-04T00:59:50;100989.03;;;17.32
70123;BMP280;57489;37.404;24.920;2024-02-04T01:04:53;100985.34;;;17.33
70123;BMP280;57489;37.404;24.920;2024-02-04T01:09:57;100980.59;;;17.30
70123;BMP280;57489;37.404;24.920;2024-02-04T01:15:00;100989.63;;;17.29
70123;BMP280;57489;37.404;24.920;2024-02-04T01:20:04;100980.63;;;17.25
70123;BMP280;57489;37.404;24.920;2024-02-04T01:25:09;100983.28;;;17.25
70123;BMP280;57489;37.404;24.920;2024-02-04T01:30:12;100974.78;;;17.23
70123;BMP280;57489;37.404;24.920;2024-02-04T01:35:15;100965.56;;;17.20
70123;BMP280;57489;37.404;24.920;2024-02-04T01:40:19;100968.50;;;17.19
70123;BMP280;57489;37.404;24.920;2024-02-04T01:45:21;100953.63;;;17.18
70123;BMP280;57489;37.404;24.920;2024-02-04T01:50:24;100952.34;;;17.15
70123;BMP280;57489;37.404;24.920;2024-02-04T01:55:28;100940.16;;;17.14
70123;BMP280;57489;37.404;24.920;2024-02-04T02:00:30;100934.63;;;17.11
70123;BMP280;57489;37.404;24.920;2024-02-04T02:05:33;100933.00;;;17.15
70123;BMP280;57489;37.404;24.920;2024-02-04T02:10:37;100927.94;;;17.13
70123;BMP280;57489;37.404;24.920;2024-02-04T02:15:44;100921.84;;;17.13
70123;BMP280;57489;37.404;24.920;2024-02-04T02:21:01;100919.00;;;17.09
70123;BMP280;57489;37.404;24.920;2024-02-04T02:26:06;100915.56;;;17.09
70123;BMP280;57489;37.404;24.920;2024-02-04T02:31:09;100913.94;;;17.08
70123;BMP280;57489;37.404;24.920;2024-02-04T02:36:17;100917.19;;;17.04
70123;BMP280;57489;37.404;24.920;2024-02-04T02:41:24;100913.75;;;17.04
70123;BMP280;57489;37.404;24.920;2024-02-04T02:46:28;100912.94;;;17.03
70123;BMP280;57489;37.404;24.920;2024-02-04T02:51:30;100912.72;;;17.00
70123;BMP280;57489;37.404;24.920;2024-02-04T02:56:34;100916.66;;;17.02
70123;BMP280;57489;37.404;24.920;2024-02-04T03:01:39;100918.28;;;16.98
70123;BMP280;57489;37.404;24.920;2024-02-04T03:06:42;100909.81;;;16.96
70123;BMP280;57489;37.404;24.920;2024-02-04T03:11:46;100920.91;;;16.98
70123;BMP280;57489;37.404;24.920;2024-02-04T03:16:48;100914.63;;;16.94
70123;BMP280;57489;37.404;24.920;2024-02-04T03:21:51;100913.00;;;16.93
70123;BMP280;57489;37.404;24.920;2024-02-04T03:26:55;100909.84;;;16.91
70123;BMP280;57489;37.404;24.920;2024-02-04T03:31:57;100905.91;;;16.89
70123;BMP280;57489;37.404;24.920;2024-02-04T03:36:59;100914.34;;;16.91
70123;BMP280;57489;37.404;24.920;2024-02-04T03:42:04;100904.84;;;16.90
70123;BMP280;57489;37.404;24.920;2024-02-04T03:47:06;100898.22;;;16.87
70123;BMP280;57489;37.404;24.920;2024-02-04T03:52:09;100887.63;;;16.87
70123;BMP280;57489;37.404;24.920;2024-02-04T03:57:13;100893.50;;;16.84
70123;BMP280;57489;37.404;24.920;2024-02-04T04:02:15;100890.03;;;16.84
70123;BMP280;57489;37.404;24.920;2024-02-04T04:07:17;100882.63;;;16.81
70123;BMP280;57489;37.404;24.920;2024-02-04T04:12:22;100892.44;;;16.80
70123;BMP280;57489;37.404;24.920;2024-02-04T04:17:24;100890.88;;;16.79
70123;BMP280;57489;37.404;24.920;2024-02-04T04:22:26;100889.28;;;16.78
70123;BMP280;57489;37.404;24.920;2024-02-04T04:27:30;100890.06;;;16.78
70123;BMP280;57489;37.404;24.920;2024-02-04T04:32:33;100890.06;;;16.78
70123;BMP280;57489;37.404;24.920;2024-02-04T04:37:36;100892.47;;;16.75
70123;BMP280;57489;37.404;24.920;2024-02-04T04:42:40;100883.50;;;16.71
70123;BMP280;57489;37.404;24.920;2024-02-04T04:47:42;100887.22;;;16.70
70123;BMP280;57489;37.404;24.920;2024-02-04T04:52:44;100887.50;;;16.68
70123;BMP280;57489;37.404;24.920;2024-02-04T04:57:49;100895.47;;;16.68
70123;BMP280;57489;37.404;24.920;2024-02-04T05:02:53;100890.41;;;16.67
70123;BMP280;57489;37.404;24.920;2024-02-04T05:07:55;100888.88;;;16.61
70123;BMP280;57489;37.404;24.920;2024-02-04T05:12:58;100906.59;;;16.65
70123;BMP280;57489;37.404;24.920;2024-02-04T05:18:00;100898.94;;;16.64
70123;BMP280;57489;37.404;24.920;2024-02-04T05:23:03;100916.16;;;16.61
70123;BMP280;57489;37.404;24.920;2024-02-04T05:28:08;100917.53;;;16.59
70123;BMP280;57489;37.404;24.920;2024-02-04T05:33:13;100913.81;;;16.54
70123;BMP280;57489;37.404;24.920;2024-02-04T05:38:16;100907.47;;;16.56
70123;BMP280;57489;37.404;24.920;2024-02-04T05:43:20;100921.22;;;16.63
70123;BMP280;57489;37.404;24.920;2024-02-04T05:48:22;100920.13;;;16.64
70123;BMP280;57489;37.404;24.920;2024-02-04T05:53:24;100918.00;;;16.66
70123;BMP280;57489;37.404;24.920;2024-02-04T05:58:28;100920.63;;;16.66
70123;BMP280;57489;37.404;24.920;2024-02-04T06:03:31;100921.63;;;16.75
70123;BMP280;57489;37.404;24.920;2024-02-04T06:08:33;100919.50;;;17.11
70123;BMP280;57489;37.404;24.920;2024-02-04T06:13:37;100909.72;;;17.36
70123;BMP280;57489;37.404;24.920;2024-02-04T06:18:40;100912.47;;;17.54
70123;BMP280;57489;37.404;24.920;2024-02-04T06:23:42;100914.13;;;17.69
70123;BMP280;57489;37.404;24.920;2024-02-04T06:28:46;100914.81;;;17.80
70123;BMP280;57489;37.404;24.920;2024-02-04T06:33:49;100910.38;;;17.94
70123;BMP280;57489;37.404;24.920;2024-02-04T06:38:52;100918.69;;;18.06
70123;BMP280;57489;37.404;24.920;2024-02-04T06:43:57;100914.03;;;18.17
70123;BMP280;57489;37.404;24.920;2024-02-04T06:48:59;100923.72;;;18.27
70123;BMP280;57489;37.404;24.920;2024-02-04T06:54:01;100929.97;;;18.36
70123;BMP280;57489;37.404;24.920;2024-02-04T06:59:05;100931.72;;;18.46
70123;BMP280;57489;37.404;24.920;2024-02-04T07:04:07;100934.03;;;18.52
70123;BMP280;57489;37.404;24.920;2024-02-04T07:09:09;100940.25;;;18.62
70123;BMP280;57489;37.404;24.920;2024-02-04T07:14:13;100924.13;;;18.72
70123;BMP280;57489;37.404;24.920;2024-02-04T07:19:15;100923.81;;;18.73
70123;BMP280;57489;37.404;24.920;2024-02-04T07:24:18;100919.25;;;18.79
70123;BMP280;57489;37.404;24.920;2024-02-04T07:29:23;100911.19;;;18.84
70123;BMP280;57489;37.404;24.920;2024-02-04T07:34:25;100922.44;;;18.95
70123;BMP280;57489;37.404;24.920;2024-02-04T07:39:27;100909.63;;;18.97
70123;BMP280;57489;37.404;24.920;2024-02-04T07:44:33;100923.13;;;19.00
70123;BMP280;57489;37.404;24.920;2024-02-04T07:49:35;100915.53;;;19.07
70123;BMP280;57489;37.404;24.920;2024-02-04T07:54:37;100922.34;;;19.14
70123;BMP280;57489;37.404;24.920;2024-02-04T07:59:41;100923.38;;;19.18
70123;BMP280;57489;37.404;24.920;2024-02-04T08:04:44;100926.44;;;19.25
70123;BMP280;57489;37.404;24.920;2024-02-04T08:09:46;100932.13;;;19.32
70123;BMP280;57489;37.404;24.920;2024-02-04T08:14:53;100937.88;;;19.39
70123;BMP280;57489;37.404;24.920;2024-02-04T08:19:55;100946.81;;;19.43
70123;BMP280;57489;37.404;24.920;2024-02-04T08:24:57;100948.81;;;19.51
70123;BMP280;57489;37.404;24.920;2024-02-04T08:30:01;100946.16;;;19.51
70123;BMP280;57489;37.404;24.920;2024-02-04T08:35:04;100951.84;;;19.58
70123;BMP280;57489;37.404;24.920;2024-02-04T08:40:09;100951.06;;;19.58
70123;BMP280;57489;37.404;24.920;2024-02-04T08:45:13;100968.03;;;19.62
70123;BMP280;57489;37.404;24.920;2024-02-04T08:50:15;100958.03;;;19.68
70123;BMP280;57489;37.404;24.920;2024-02-04T08:55:17;100955.19;;;19.64
70123;BMP280;57489;37.404;24.920;2024-02-04T09:00:21;100954.00;;;19.70
70123;BMP280;57489;37.404;24.920;2024-02-04T09:05:24;100954.81;;;19.71
70123;BMP280;57489;37.404;24.920;2024-02-04T09:10:26;100942.41;;;19.66
70123;BMP280;57489;37.404;24.920;2024-02-04T09:15:30;100956.28;;;19.77
70123;BMP280;57489;37.404;24.920;2024-02-04T09:20:32;100949.06;;;19.77
70123;BMP280;57489;37.404;24.920;2024-02-04T09:25:35;100949.69;;;19.88
70123;BMP280;57489;37.404;24.920;2024-02-04T09:30:39;100947.19;;;19.78
70123;BMP280;57489;37.404;24.920;2024-02-04T09:35:41;100951.91;;;19.95
70123;BMP280;57489;37.404;24.920;2024-02-04T09:40:44;100956.78;;;19.93
70123;BMP280;57489;37.404;24.920;2024-02-04T09:45:48;100954.75;;;19.98
70123;BMP280;57489;37.404;24.920;2024-02-04T09:50:51;100953.66;;;20.13
70123;BMP280;57489;37.404;24.920;2024-02-04T09:55:55;100943.56;;;20.24
70123;BMP280;57489;37.404;24.920;2024-02-04T10:01:00;100936.88;;;20.12
70123;BMP280;57489;37.404;24.920;2024-02-04T10:06:02;100932.84;;;20.15
70123;BMP280;57489;37.404;24.920;2024-02-04T10:11:04;100926.28;;;20.21
70123;BMP280;57489;37.404;24.920;2024-02-04T10:16:09;100908.91;;;20.24
70123;BMP280;57489;37.404;24.920;2024-02-04T10:21:15;100907.34;;;20.23
70123;BMP280;57489;37.404;24.920;2024-02-04T10:26:19;100903.00;;;20.27
70123;BMP280;57489;37.404;24.920;2024-02-04T10:31:23;100898.72;;;20.48
70123;BMP280;57489;37.404;24.920;2024-02-04T10:36:30;100886.91;;;20.40
70123;BMP280;57489;37.404;24.920;2024-02-04T10:41:34;100884.38;;;20.35
70123;BMP280;57489;37.404;24.920;2024-02-04T10:46:39;100882.63;;;20.31
70123;BMP280;57489;37.404;24.920;2024-02-04T10:51:42;100875.88;;;20.33
70123;BMP280;57489;37.404;24.920;2024-02-04T10:56:55;100878.88;;;20.32
70123;BMP280;57489;37.404;24.920;2024-02-04T11:01:59;100868.22;;;20.32
70123;BMP280;57489;37.404;24.920;2024-02-04T11:07:03;100857.28;;;19.97
70123;BMP280;57489;37.404;24.920;2024-02-04T11:12:09;100850.09;;;20.20
70123;BMP280;57489;37.404;24.920;2024-02-04T11:23:14;100846.03;;;20.23
70123;BMP280;57489;37.404;24.920;2024-02-04T11:28:21;100840.66;;;20.36
70123;BMP280;57489;37.404;24.920;2024-02-04T11:33:23;100838.66;;;20.51
70123;BMP280;57489;37.404;24.920;2024-02-04T11:38:31;100829.72;;;20.47
70123;BMP280;57489;37.404;24.920;2024-02-04T11:43:34;100817.88;;;20.61
70123;BMP280;57489;37.404;24.920;2024-02-04T11:48:37;100820.47;;;20.75
70123;BMP280;57489;37.404;24.920;2024-02-04T11:53:41;100819.69;;;20.83
70123;BMP280;57489;37.404;24.920;2024-02-04T11:58:43;100801.63;;;20.40
70123;BMP280;57489;37.404;24.920;2024-02-04T12:03:46;100809.59;;;20.32
70123;BMP280;57489;37.404;24.920;2024-02-04T12:08:50;100807.03;;;20.27
70123;BMP280;57489;37.404;24.920;2024-02-04T12:13:53;100811.13;;;20.33
70123;BMP280;57489;37.404;24.920;2024-02-04T12:18:57;100803.00;;;20.38
70123;BMP280;57489;37.404;24.920;2024-02-04T12:24:01;100797.41;;;20.48
70123;BMP280;57489;37.404;24.920;2024-02-04T12:29:04;100792.22;;;20.43
70123;BMP280;57489;37.404;24.920;2024-02-04T12:34:08;100798.44;;;20.07
70123;BMP280;57489;37.404;24.920;2024-02-04T12:39:15;100791.84;;;20.27
70123;BMP280;57489;37.404;24.920;2024-02-04T12:44:18;100786.22;;;20.06
70123;BMP280;57489;37.404;24.920;2024-02-04T12:49:21;100787.19;;;20.10
70123;BMP280;57489;37.404;24.920;2024-02-04T12:54:25;100791.91;;;20.13
70123;BMP280;57489;37.404;24.920;2024-02-04T12:59:29;100790.34;;;20.12
70123;BMP280;57489;37.404;24.920;2024-02-04T13:04:36;100793.84;;;19.99
70123;BMP280;57489;37.404;24.920;2024-02-04T13:09:40;100800.09;;;20.17
70123;BMP280;57489;37.404;24.920;2024-02-04T13:14:42;100796.59;;;20.16
70123;BMP280;57489;37.404;24.920;2024-02-04T13:19:45;100809.47;;;20.14
70123;BMP280;57489;37.404;24.920;2024-02-04T13:24:49;100804.56;;;20.08
70123;BMP280;57489;37.404;24.920;2024-02-04T13:29:51;100812.47;;;19.99
70123;BMP280;57489;37.404;24.920;2024-02-04T13:34:54;100812.88;;;20.06
70123;BMP280;57489;37.404;24.920;2024-02-04T13:39:58;100803.91;;;19.80
70123;BMP280;57489;37.404;24.920;2024-02-04T13:45:00;100815.34;;;19.80
70123;BMP280;57489;37.404;24.920;2024-02-04T13:50:04;100802.94;;;19.76
70123;BMP280;57489;37.404;24.920;2024-02-04T13:55:08;100809.22;;;19.80
70123;BMP280;57489;37.404;24.920;2024-02-04T14:00:12;100809.81;;;19.77
70123;BMP280;57489;37.404;24.920;2024-02-04T14:05:14;100817.31;;;19.75
70123;BMP280;57489;37.404;24.920;2024-02-04T14:10:19;100827.22;;;19.60
70123;BMP280;57489;37.404;24.920;2024-02-04T14:15:22;100833.25;;;19.52
70123;BMP280;57489;37.404;24.920;2024-02-04T14:20:24;100831.97;;;19.50
70123;BMP280;57489;37.404;24.920;2024-02-04T14:25:29;100841.56;;;19.37
70123;BMP280;57489;37.404;24.920;2024-02-04T14:30:31;100824.13;;;19.31
70123;BMP280;57489;37.404;24.920;2024-02-04T14:35:33;100827.47;;;19.23
70123;BMP280;57489;37.404;24.920;2024-02-04T14:40:37;100810.31;;;19.29
70123;BMP280;57489;37.404;24.920;2024-02-04T14:45:40;100793.47;;;19.70
70123;BMP280;57489;37.404;24.920;2024-02-04T14:50:42;100783.19;;;20.22
70123;BMP280;57489;37.404;24.920;2024-02-04T14:55:46;100786.22;;;20.68
70123;BMP280;57489;37.404;24.920;2024-02-04T15:00:49;100789.41;;;20.88
70123;BMP280;57489;37.404;24.920;2024-02-04T15:05:51;100798.69;;;20.90
70123;BMP280;57489;37.404;24.920;2024-02-04T15:10:55;100795.97;;;20.82
70123;BMP280;57489;37.404;24.920;2024-02-04T15:15:58;100806.16;;;20.71
70123;BMP280;57489;37.404;24.920;2024-02-04T15:21:01;100815.69;;;20.63
70123;BMP280;57489;37.404;24.920;2024-02-04T15:26:07;100788.59;;;20.39
70123;BMP280;57489;37.404;24.920;2024-02-04T15:31:13;100803.63;;;20.35
70123;BMP280;57489;37.404;24.920;2024-02-04T15:36:16;100801.22;;;20.25
70123;BMP280;57489;37.404;24.920;2024-02-04T15:41:20;100803.34;;;20.14
70123;BMP280;57489;37.404;24.920;2024-02-04T15:46:23;100791.00;;;19.96
70123;BMP280;57489;37.404;24.920;2024-02-04T15:51:27;100805.47;;;19.81
70123;BMP280;57489;37.404;24.920;2024-02-04T15:56:33;100807.69;;;19.65
70123;BMP280;57489;37.404;24.920;2024-02-04T16:01:37;100803.97;;;19.52
70123;BMP280;57489;37.404;24.920;2024-02-04T16:06:41;100812.19;;;19.42
70123;BMP280;57489;37.404;24.920;2024-02-04T16:11:51;100801.97;;;19.72
70123;BMP280;57489;37.404;24.920;2024-02-04T16:17:02;100801.91;;;20.08
70123;BMP280;57489;37.404;24.920;2024-02-04T16:22:05;100795.50;;;20.40
70123;BMP280;57489;37.404;24.920;2024-02-04T16:27:09;100796.53;;;20.61
70123;BMP280;57489;37.404;24.920;2024-02-04T16:32:11;100804.69;;;20.56
70123;BMP280;57489;37.404;24.920;2024-02-04T16:37:14;100810.78;;;20.57
70123;BMP280;57489;37.404;24.920;2024-02-04T16:42:18;100806.84;;;20.54
70123;BMP280;57489;37.404;24.920;2024-02-04T16:47:20;100815.63;;;20.55
70123;BMP280;57489;37.404;24.920;2024-02-04T16:52:23;100817.81;;;20.44
70123;BMP280;57489;37.404;24.920;2024-02-04T16:57:27;100826.34;;;20.32
70123;BMP280;57489;37.404;24.920;2024-02-04T17:02:30;100824.41;;;20.24
70123;BMP280;57489;37.404;24.920;2024-02-04T17:07:33;100831.59;;;20.15
70123;BMP280;57489;37.404;24.920;2024-02-04T17:12:37;100847.13;;;20.22
70123;BMP280;57489;37.404;24.920;2024-02-04T17:17:45;100847.22;;;20.16
70123;BMP280;57489;37.404;24.920;2024-02-04T17:22:49;100840.72;;;20.00
70123;BMP280;57489;37.404;24.920;2024-02-04T17:27:55;100853.16;;;19.91
70123;BMP280;57489;37.404;24.920;2024-02-04T17:33:03;100837.16;;;19.69
70123;BMP280;57489;37.404;24.920;2024-02-04T17:38:05;100848.41;;;19.66
70123;BMP280;57489;37.404;24.920;2024-02-04T17:43:10;100838.94;;;19.59
70123;BMP280;57489;37.404;24.920;2024-02-04T17:48:13;100846.16;;;19.59
70123;BMP280;57489;37.404;24.920;2024-02-04T17:53:15;100855.16;;;19.49
70123;BMP280;57489;37.404;24.920;2024-02-04T17:58:19;100854.28;;;19.40
70123;BMP280;57489;37.404;24.920;2024-02-04T18:03:21;100869.63;;;19.71
70123;BMP280;57489;37.404;24.920;2024-02-04T18:08:24;100860.91;;;19.79
70123;BMP280;57489;37.404;24.920;2024-02-04T18:13:30;100878.41;;;20.16
70123;BMP280;57489;37.404;24.920;2024-02-04T18:18:33;100869.16;;;20.58
70123;BMP280;57489;37.404;24.920;2024-02-04T18:23:36;100871.25;;;20.70
70123;BMP280;57489;37.404;24.920;2024-02-04T18:28:39;100873.09;;;21.01
70123;BMP280;57489;37.404;24.920;2024-02-04T18:33:41;100880.16;;;21.05
70123;BMP280;57489;37.404;24.920;2024-02-04T18:38:44;100885.66;;;21.09
70123;BMP280;57489;37.404;24.920;2024-02-04T18:43:48;100899.16;;;21.04
70123;BMP280;57489;37.404;24.920;2024-02-04T18:48:51;100892.47;;;20.75
70123;BMP280;57489;37.404;24.920;2024-02-04T18:53:54;100914.38;;;20.72
70123;BMP280;57489;37.404;24.920;2024-02-04T18:58:58;100905.66;;;20.80
70123;BMP280;57489;37.404;24.920;2024-02-04T19:04:00;100909.50;;;20.65
70123;BMP280;57489;37.404;24.920;2024-02-04T19:09:03;100912.28;;;20.60
70123;BMP280;57489;37.404;24.920;2024-02-04T19:14:10;100913.16;;;20.47
70123;BMP280;57489;37.404;24.920;2024-02-04T19:19:13;100906.00;;;20.34
70123;BMP280;57489;37.404;24.920;2024-02-04T19:24:16;100907.69;;;20.30
70123;BMP280;57489;37.404;24.920;2024-02-04T19:29:20;100913.28;;;20.20
70123;BMP280;57489;37.404;24.920;2024-02-04T19:34:22;100915.31;;;20.00
70123;BMP280;57489;37.404;24.920;2024-02-04T19:39:24;100913.69;;;20.13
70123;BMP280;57489;37.404;24.920;2024-02-04T19:44:29;100911.81;;;20.36
70123;BMP280;57489;37.404;24.920;2024-02-04T19:49:32;100904.72;;;20.09
70123;BMP280;57489;37.404;24.920;2024-02-04T19:54:34;100902.91;;;20.18
70123;BMP280;57489;37.404;24.920;2024-02-04T19:59:37;100896.91;;;20.12
70123;BMP280;57489;37.404;24.920;2024-02-04T20:04:40;100907.00;;;20.02
70123;BMP280;57489;37.404;24.920;2024-02-04T20:09:43;100898.97;;;19.93
70123;BMP280;57489;37.404;24.920;2024-02-04T20:14:50;100907.91;;;19.97
70123;BMP280;57489;37.404;24.920;2024-02-04T20:19:53;100901.28;;;19.95
70123;BMP280;57489;37.404;24.920;2024-02-04T20:24:57;100898.34;;;19.96
70123;BMP280;57489;37.404;24.920;2024-02-04T20:30:01;100903.16;;;19.94
70123;BMP280;57489;37.404;24.920;2024-02-04T20:35:05;100908.50;;;19.94
70123;BMP280;57489;37.404;24.920;2024-02-04T20:40:08;100916.72;;;19.84
70123;BMP280;57489;37.404;24.920;2024-02-04T20:45:11;100914.16;;;19.93
70123;BMP280;57489;37.404;24.920;2024-02-04T20:50:14;100917.72;;;19.88
70123;BMP280;57489;37.404;24.920;2024-02-04T20:55:40;100914.53;;;19.86
70123;BMP280;57489;37.404;24.920;2024-02-04T21:00:44;100922.97;;;20.15
70123;BMP280;57489;37.404;24.920;2024-02-04T21:05:46;100912.91;;;19.99
70123;BMP280;57489;37.404;24.920;2024-02-04T21:10:48;100910.03;;;20.09
70123;BMP280;57489;37.404;24.920;2024-02-04T21:15:52;100903.41;;;19.84
70123;BMP280;57489;37.404;24.920;2024-02-04T21:20:54;100899.25;;;19.78
70123;BMP280;57489;37.404;24.920;2024-02-04T21:25:57;100916.91;;;19.87
70123;BMP280;57489;37.404;24.920;2024-02-04T21:31:02;100913.16;;;20.02
70123;BMP280;57489;37.404;24.920;2024-02-04T21:36:08;100910.63;;;19.70
70123;BMP280;57489;37.404;24.920;2024-02-04T21:41:17;100911.41;;;19.84
70123;BMP280;57489;37.404;24.920;2024-02-04T21:46:21;100913.16;;;20.02
70123;BMP280;57489;37.404;24.920;2024-02-04T21:51:23;100906.47;;;20.13
70123;BMP280;57489;37.404;24.920;2024-02-04T21:56:25;100896.31;;;20.15
70123;BMP280;57489;37.404;24.920;2024-02-04T22:01:29;100906.47;;;20.36
70123;BMP280;57489;37.404;24.920;2024-02-04T22:06:31;100903.88;;;20.22
70123;BMP280;57489;37.404;24.920;2024-02-04T22:11:33;100906.09;;;20.29
70123;BMP280;57489;37.404;24.920;2024-02-04T22:16:39;100901.25;;;20.08
70123;BMP280;57489;37.404;24.920;2024-02-04T22:21:41;100891.09;;;20.33
70123;BMP280;57489;37.404;24.920;2024-02-04T22:26:43;100890.44;;;20.27
70123;BMP280;57489;37.404;24.920;2024-02-04T22:31:47;100891.88;;;19.75
70123;BMP280;57489;37.404;24.920;2024-02-04T22:36:50;100881.06;;;19.57
70123;BMP280;57489;37.404;24.920;2024-02-04T22:41:52;100895.63;;;19.46
70123;BMP280;57489;37.404;24.920;2024-02-04T22:46:56;100890.56;;;19.36
70123;BMP280;57489;37.404;24.920;2024-02-04T22:52:00;100894.88;;;19.32
70123;BMP280;57489;37.404;24.920;2024-02-04T22:57:02;100887.56;;;19.24
70123;BMP280;57489;37.404;24.920;2024-02-04T23:02:06;100874.97;;;19.16
70123;BMP280;57489;37.404;24.920;2024-02-04T23:07:08;100888.94;;;19.07
70123;BMP280;57489;37.404;24.920;2024-02-04T23:12:12;100889.53;;;19.04
70123;BMP280;57489;37.404;24.920;2024-02-04T23:17:16;100878.31;;;18.94
70123;BMP280;57489;37.404;24.920;2024-02-04T23:22:18;100872.78;;;18.90
70123;BMP280;57489;37.404;24.920;2024-02-04T23:27:21;100871.78;;;18.86
70123;BMP280;57489;37.404;24.920;2024-02-04T23:32:25;100864.69;;;18.81
70123;BMP280;57489;37.404;24.920;2024-02-04T23:37:27;100866.34;;;18.77
70123;BMP280;57489;37.404;24.920;2024-02-04T23:42:30;100878.28;;;18.80
70123;BMP280;57489;37.404;24.920;2024-02-04T23:47:34;100880.41;;;18.78
70123;BMP280;57489;37.404;24.920;2024-02-04T23:52:36;100868.28;;;18.72
70123;BMP280;57489;37.404;24.920;2024-02-04T23:57:38;100870.25;;;18.66
